createdAt,value
2019-02-25T00:02:31.594Z,2.08
2019-02-25T00:05:03.422Z,2.06
2019-02-25T00:07:35.323Z,2.02
2019-02-25T00:10:08.231Z,2.01
2019-02-25T00:12:40.046Z,1.98
2019-02-25T00:15:11.948Z,1.94
2019-02-25T00:17:43.841Z,1.89
2019-02-25T00:20:15.630Z,1.84
2019-02-25T00:22:47.477Z,1.80
2019-02-25T00:25:19.282Z,1.77
2019-02-25T00:27:51.120Z,1.74
2019-02-25T00:30:23.549Z,1.68
2019-02-25T00:32:55.440Z,1.69
2019-02-25T00:35:27.212Z,1.67
2019-02-25T00:37:59.032Z,1.63
2019-02-25T00:40:30.850Z,1.61
2019-02-25T00:43:02.672Z,1.59
2019-02-25T00:45:34.450Z,1.57
2019-02-25T00:48:06.264Z,1.59
2019-02-25T00:50:38.109Z,1.58
2019-02-25T00:53:09.951Z,1.61
2019-02-25T00:55:42.816Z,1.57
2019-02-25T00:58:15.770Z,1.53
2019-02-25T01:00:47.600Z,1.50
2019-02-25T01:03:19.433Z,1.47
2019-02-25T01:05:51.369Z,1.48
2019-02-25T01:08:23.161Z,1.49
2019-02-25T01:10:55.010Z,1.51
2019-02-25T01:13:26.810Z,1.48
2019-02-25T01:15:58.708Z,1.46
2019-02-25T01:18:30.609Z,1.49
2019-02-25T01:21:02.422Z,1.47
2019-02-25T01:23:34.244Z,1.39
2019-02-25T01:26:06.085Z,1.37
2019-02-25T01:28:37.884Z,1.32
2019-02-25T01:31:10.898Z,1.28
2019-02-25T01:33:42.751Z,1.25
2019-02-25T01:36:14.599Z,1.18
2019-02-25T01:38:46.411Z,1.14
2019-02-25T01:41:18.240Z,1.15
2019-02-25T01:43:50.061Z,1.20
2019-02-25T01:46:22.101Z,1.27
2019-02-25T01:48:56.831Z,1.30
2019-02-25T01:51:28.682Z,1.33
2019-02-25T01:54:00.543Z,1.28
2019-02-25T01:56:32.481Z,1.28
2019-02-25T01:59:05.524Z,1.36
2019-02-25T02:01:40.400Z,1.33
2019-02-25T02:04:12.323Z,1.26
2019-02-25T02:06:44.127Z,1.21
2019-02-25T02:09:16.150Z,1.20
2019-02-25T02:11:49.007Z,1.21
2019-02-25T02:14:20.903Z,1.22
2019-02-25T02:16:52.874Z,1.18
2019-02-25T02:19:26.399Z,1.09
2019-02-25T02:21:58.275Z,1.05
2019-02-25T02:24:30.445Z,1.02
2019-02-25T02:27:02.366Z,0.98
2019-02-25T02:29:35.676Z,0.99
2019-02-25T02:32:07.533Z,1.02
2019-02-25T02:34:39.504Z,0.99
2019-02-25T02:37:13.187Z,0.96
2019-02-25T02:39:45.340Z,0.92
2019-02-25T02:42:22.503Z,0.87
2019-02-25T02:45:03.677Z,0.87
2019-02-25T02:48:19.515Z,0.87
2019-02-25T02:50:52.614Z,0.84
2019-02-25T02:53:24.643Z,0.79
2019-02-25T02:55:57.694Z,0.88
2019-02-25T02:58:29.813Z,0.95
2019-02-25T03:01:01.719Z,1.00
2019-02-25T03:03:33.713Z,1.03
2019-02-25T03:06:06.715Z,1.12
2019-02-25T03:08:42.929Z,1.04
2019-02-25T03:11:19.448Z,1.02
2019-02-25T03:13:53.163Z,0.99
2019-02-25T03:16:25.435Z,1.01
2019-02-25T03:18:58.960Z,1.12
2019-02-25T03:21:31.087Z,1.11
2019-02-25T03:24:06.804Z,0.99
2019-02-25T03:26:38.988Z,0.91
2019-02-25T03:29:17.200Z,0.90
2019-02-25T03:31:49.141Z,0.79
2019-02-25T03:34:21.188Z,0.74
2019-02-25T03:36:58.141Z,0.72
2019-02-25T03:39:30.308Z,0.77
2019-02-25T03:42:04.520Z,0.78
2019-02-25T03:44:36.508Z,0.78
2019-02-25T03:47:10.744Z,0.79
2019-02-25T03:49:42.498Z,0.73
2019-02-25T03:52:16.424Z,0.72
2019-02-25T03:54:48.388Z,0.73
2019-02-25T03:57:20.639Z,0.84
2019-02-25T03:59:52.801Z,0.89
2019-02-25T04:02:24.782Z,1.00
2019-02-25T04:04:59.333Z,0.92
2019-02-25T04:07:35.783Z,0.95
2019-02-25T04:10:13.969Z,0.96
2019-02-25T04:12:46.195Z,0.95
2019-02-25T04:15:23.504Z,0.89
2019-02-25T04:17:55.663Z,0.87
2019-02-25T04:20:29.125Z,0.84
2019-02-25T04:23:04.252Z,0.86
2019-02-25T04:25:38.942Z,0.88
2019-02-25T04:28:10.820Z,0.91
2019-02-25T04:30:45.156Z,0.93
2019-02-25T04:33:20.958Z,0.96
2019-02-25T04:35:56.463Z,0.91
2019-02-25T04:38:36.590Z,0.80
2019-02-25T04:41:11.525Z,0.77
2019-02-25T04:43:43.555Z,0.87
2019-02-25T04:46:15.631Z,0.90
2019-02-25T04:48:53.808Z,0.86
2019-02-25T04:51:30.254Z,0.78
2019-02-25T04:54:02.313Z,0.73
2019-02-25T04:56:40.684Z,0.78
2019-02-25T04:59:12.750Z,0.73
2019-02-25T05:01:44.587Z,0.70
2019-02-25T05:04:16.400Z,0.69
2019-02-25T05:06:51.960Z,0.72
2019-02-25T05:09:24.003Z,0.68
2019-02-25T05:11:55.975Z,0.71
2019-02-25T05:14:30.165Z,0.68
2019-02-25T05:17:02.410Z,0.67
2019-02-25T05:19:38.208Z,0.68
2019-02-25T05:22:10.418Z,0.66
2019-02-25T05:24:42.537Z,0.69
2019-02-25T05:27:16.767Z,0.61
2019-02-25T05:29:53.952Z,0.58
2019-02-25T05:32:26.232Z,0.59
2019-02-25T05:34:58.218Z,0.53
2019-02-25T05:37:32.369Z,0.49
2019-02-25T05:40:12.483Z,0.50
2019-02-25T05:42:52.439Z,0.53
2019-02-25T05:45:32.266Z,0.54
2019-02-25T05:48:07.338Z,0.50
2019-02-25T05:50:42.154Z,0.47
2019-02-25T05:53:18.546Z,0.49
2019-02-25T05:55:53.675Z,0.50
2019-02-25T05:58:35.326Z,0.46
2019-02-25T06:01:11.331Z,0.45
2019-02-25T06:03:45.133Z,0.45
2019-02-25T06:06:18.298Z,0.44
2019-02-25T06:08:54.790Z,0.40
2019-02-25T06:11:28.379Z,0.42
2019-02-25T06:14:09.020Z,0.43
2019-02-25T06:16:42.636Z,0.54
2019-02-25T06:19:20.483Z,0.64
2019-02-25T06:21:56.505Z,0.69
2019-02-25T06:24:32.284Z,0.77
2019-02-25T06:27:07.606Z,0.80
2019-02-25T06:29:50.014Z,0.81
2019-02-25T06:32:32.878Z,0.94
2019-02-25T06:35:12.195Z,0.99
2019-02-25T06:37:44.130Z,1.05
2019-02-25T06:40:20.575Z,1.06
2019-02-25T06:42:52.575Z,1.05
2019-02-25T06:45:28.309Z,1.12
2019-02-25T06:48:02.130Z,1.18
2019-02-25T06:50:38.410Z,1.23
2019-02-25T06:53:10.398Z,1.31
2019-02-25T06:55:42.386Z,1.40
2019-02-25T06:58:20.289Z,1.46
2019-02-25T07:00:53.861Z,1.51
2019-02-25T07:03:25.809Z,1.57
2019-02-25T07:06:07.697Z,1.65
2019-02-25T07:08:52.497Z,1.72
2019-02-25T07:11:36.351Z,1.77
2019-02-25T07:14:27.475Z,1.83
2019-02-25T07:17:17.016Z,1.90
2019-02-25T07:20:17.066Z,1.99
2019-02-25T07:23:13.903Z,2.10
2019-02-25T07:26:06.880Z,2.13
2019-02-25T07:28:56.237Z,2.18
2019-02-25T07:31:43.244Z,2.26
2019-02-25T07:34:21.318Z,2.33
2019-02-25T07:37:17.951Z,2.38
2019-02-25T07:40:15.245Z,2.49
2019-02-25T07:43:09.107Z,2.54
2019-02-25T07:45:59.781Z,2.60
2019-02-25T07:48:38.142Z,2.63
2019-02-25T07:51:31.749Z,2.77
2019-02-25T07:54:25.217Z,2.89
2019-02-25T07:57:18.990Z,2.97
2019-02-25T08:00:11.293Z,3.11
2019-02-25T08:02:58.224Z,3.18
2019-02-25T08:05:51.379Z,3.31
2019-02-25T08:08:33.229Z,3.37
2019-02-25T08:11:32.909Z,3.56
2019-02-25T08:14:26.568Z,3.64
2019-02-25T08:17:20.010Z,3.72
2019-02-25T08:20:08.677Z,3.83
2019-02-25T08:22:58.759Z,3.95
2019-02-25T08:26:02.000Z,4.05
2019-02-25T08:28:50.457Z,4.17
2019-02-25T08:31:47.402Z,4.24
2019-02-25T08:34:34.738Z,4.31
2019-02-25T08:38:15.557Z,4.43
2019-02-25T08:41:21.143Z,4.57
2019-02-25T08:44:10.449Z,4.77
2019-02-25T08:47:01.182Z,4.88
2019-02-25T08:49:45.875Z,4.99
2019-02-25T08:52:17.749Z,5.12
2019-02-25T08:54:49.672Z,5.25
2019-02-25T08:57:22.739Z,5.41
2019-02-25T08:59:55.668Z,5.56
2019-02-25T09:02:27.551Z,5.71
2019-02-25T09:04:59.431Z,5.81
2019-02-25T09:07:31.435Z,5.93
2019-02-25T09:10:03.324Z,6.08
2019-02-25T09:12:35.272Z,6.22
2019-02-25T09:15:08.760Z,6.38
2019-02-25T09:17:44.608Z,6.52
2019-02-25T09:20:17.075Z,6.67
2019-02-25T09:22:48.964Z,6.85
2019-02-25T09:25:23.450Z,7.05
2019-02-25T09:27:55.327Z,7.20
2019-02-25T09:30:27.229Z,7.40
2019-02-25T09:32:59.144Z,7.57
2019-02-25T09:35:31.192Z,7.74
2019-02-25T09:38:03.104Z,7.78
2019-02-25T09:40:35.061Z,7.83
2019-02-25T09:43:06.933Z,7.90
2019-02-25T09:45:38.980Z,8.02
2019-02-25T09:48:10.844Z,8.10
2019-02-25T09:50:42.754Z,8.17
2019-02-25T09:53:14.597Z,8.27
2019-02-25T09:55:46.468Z,8.30
2019-02-25T09:58:18.355Z,8.42
2019-02-25T10:00:50.264Z,8.60
2019-02-25T10:03:22.165Z,8.67
2019-02-25T10:05:54.139Z,8.69
2019-02-25T10:08:26.044Z,8.76
2019-02-25T10:10:57.950Z,8.84
2019-02-25T10:13:29.844Z,8.89
2019-02-25T10:16:01.695Z,8.91
2019-02-25T10:18:33.495Z,9.06
2019-02-25T10:21:05.388Z,9.07
2019-02-25T10:23:37.451Z,9.15
2019-02-25T10:26:09.405Z,9.17
2019-02-25T10:28:41.304Z,9.18
2019-02-25T10:31:15.209Z,9.30
2019-02-25T10:33:46.728Z,9.37
2019-02-25T10:36:18.543Z,9.49
2019-02-25T10:38:50.332Z,9.51
2019-02-25T10:41:23.417Z,9.55
2019-02-25T10:43:55.764Z,9.62
2019-02-25T10:46:28.598Z,9.69
2019-02-25T10:49:10.950Z,9.80
2019-02-25T10:51:35.142Z,9.88
2019-02-25T10:54:07.855Z,9.93
2019-02-25T10:56:58.985Z,9.96
2019-02-25T10:59:32.228Z,10.09
2019-02-25T11:02:04.939Z,10.22
2019-02-25T11:04:36.899Z,10.30
2019-02-25T11:07:09.643Z,10.34
2019-02-25T11:09:55.386Z,10.29
2019-02-25T11:12:27.962Z,10.34
2019-02-25T11:15:00.875Z,10.34
2019-02-25T11:17:33.223Z,10.36
2019-02-25T11:20:07.795Z,10.29
2019-02-25T11:22:41.578Z,10.20
2019-02-25T11:25:14.047Z,10.20
2019-02-25T11:27:46.076Z,10.41
2019-02-25T11:30:19.345Z,10.43
2019-02-25T11:32:53.423Z,10.63
2019-02-25T11:35:26.226Z,10.68
2019-02-25T11:37:59.770Z,10.79
2019-02-25T11:40:33.618Z,10.81
2019-02-25T11:43:05.316Z,10.83
2019-02-25T11:45:37.578Z,10.81
2019-02-25T11:48:09.465Z,10.93
2019-02-25T11:50:41.415Z,10.95
2019-02-25T11:53:13.253Z,10.95
2019-02-25T11:55:45.219Z,11.04
2019-02-25T11:58:17.070Z,11.15
2019-02-25T12:00:50.028Z,11.27
2019-02-25T12:03:21.838Z,11.20
2019-02-25T12:05:53.690Z,11.43
2019-02-25T12:08:25.523Z,11.46
2019-02-25T12:10:57.523Z,11.54
2019-02-25T12:13:30.431Z,11.48
2019-02-25T12:16:02.274Z,11.44
2019-02-25T12:18:35.221Z,11.51
2019-02-25T12:21:07.250Z,11.56
2019-02-25T12:23:39.148Z,11.66
2019-02-25T12:26:10.981Z,11.67
2019-02-25T12:28:42.864Z,11.76
2019-02-25T12:31:14.723Z,11.80
2019-02-25T12:33:46.609Z,11.72
2019-02-25T12:36:18.533Z,11.69
2019-02-25T12:38:50.544Z,11.71
2019-02-25T12:41:22.426Z,11.97
2019-02-25T12:43:54.391Z,11.90
2019-02-25T12:46:26.241Z,11.89
2019-02-25T12:48:58.183Z,12.03
2019-02-25T12:51:30.051Z,12.10
2019-02-25T12:54:01.975Z,12.15
2019-02-25T12:56:33.987Z,12.14
2019-02-25T12:59:05.945Z,12.19
2019-02-25T13:01:37.850Z,12.18
2019-02-25T13:04:09.854Z,12.27
2019-02-25T13:06:41.760Z,12.15
2019-02-25T13:09:15.528Z,12.09
2019-02-25T13:11:47.387Z,12.05
2019-02-25T13:14:19.266Z,12.06
2019-02-25T13:16:51.224Z,12.16
2019-02-25T13:19:23.134Z,12.28
2019-02-25T13:21:56.222Z,12.28
2019-02-25T13:24:28.802Z,12.21
2019-02-25T13:27:03.183Z,12.25
2019-02-25T13:29:35.281Z,12.41
2019-02-25T13:32:07.117Z,12.52
2019-02-25T13:34:39.050Z,12.50
2019-02-25T13:37:11.139Z,12.52
2019-02-25T13:39:43.035Z,12.57
2019-02-25T13:42:15.026Z,12.59
2019-02-25T13:44:46.894Z,12.64
2019-02-25T13:47:18.915Z,12.74
2019-02-25T13:49:51.111Z,12.65
2019-02-25T13:52:23.031Z,12.61
2019-02-25T13:54:54.903Z,12.78
2019-02-25T13:57:26.726Z,12.82
2019-02-25T13:59:59.579Z,12.82
2019-02-25T14:02:31.710Z,12.69
2019-02-25T14:05:03.679Z,12.67
2019-02-25T14:07:35.856Z,12.76
2019-02-25T14:10:10.726Z,12.64
2019-02-25T14:12:42.795Z,12.60
2019-02-25T14:15:17.012Z,12.69
2019-02-25T14:17:48.937Z,12.67
2019-02-25T14:20:21.251Z,12.64
2019-02-25T14:22:53.240Z,12.65
2019-02-25T14:25:27.282Z,12.65
2019-02-25T14:27:59.494Z,12.66
2019-02-25T14:30:33.601Z,12.55
2019-02-25T14:33:07.973Z,12.57
2019-02-25T14:35:39.884Z,12.54
2019-02-25T14:38:15.240Z,12.51
2019-02-25T14:40:46.728Z,12.58
2019-02-25T14:43:20.651Z,12.53
2019-02-25T14:45:56.274Z,12.40
2019-02-25T14:48:27.874Z,12.39
2019-02-25T14:51:01.011Z,12.29
2019-02-25T14:53:32.959Z,12.28
2019-02-25T14:56:05.274Z,12.45
2019-02-25T14:58:37.863Z,12.53
2019-02-25T15:01:11.055Z,12.58
2019-02-25T15:03:43.108Z,12.61
2019-02-25T15:06:15.099Z,12.57
2019-02-25T15:08:47.126Z,12.58
2019-02-25T15:11:19.298Z,12.53
2019-02-25T15:13:51.344Z,12.56
2019-02-25T15:16:23.727Z,12.52
2019-02-25T15:18:58.633Z,12.56
2019-02-25T15:21:33.781Z,12.59
2019-02-25T15:24:06.857Z,12.57
2019-02-25T15:26:42.803Z,12.50
2019-02-25T15:29:16.262Z,12.55
2019-02-25T15:31:50.467Z,12.51
2019-02-25T15:34:28.559Z,12.38
2019-02-25T15:37:24.354Z,12.29
2019-02-25T15:39:56.448Z,12.34
2019-02-25T15:42:30.102Z,12.35
2019-02-25T15:45:02.211Z,12.37
2019-02-25T15:47:34.396Z,12.34
2019-02-25T15:50:08.076Z,12.37
2019-02-25T15:52:41.789Z,12.36
2019-02-25T15:55:17.392Z,12.30
2019-02-25T15:57:53.307Z,12.32
2019-02-25T16:00:27.497Z,12.31
2019-02-25T16:02:59.384Z,12.20
2019-02-25T16:05:34.331Z,12.20
2019-02-25T16:08:09.966Z,12.15
2019-02-25T16:10:41.815Z,12.18
2019-02-25T16:13:14.392Z,12.12
2019-02-25T16:15:46.384Z,11.92
2019-02-25T16:18:19.074Z,11.67
2019-02-25T16:20:50.997Z,11.72
2019-02-25T16:23:25.754Z,11.58
2019-02-25T16:25:57.589Z,11.41
2019-02-25T16:28:31.226Z,11.31
2019-02-25T16:31:05.663Z,11.10
2019-02-25T16:33:37.583Z,10.82
2019-02-25T16:36:10.029Z,10.69
2019-02-25T16:38:41.965Z,10.50
2019-02-25T16:41:16.006Z,10.43
2019-02-25T16:43:48.376Z,10.47
2019-02-25T16:46:24.426Z,10.36
2019-02-25T16:48:57.442Z,10.25
2019-02-25T16:51:30.593Z,10.09
2019-02-25T16:54:11.063Z,10.06
2019-02-25T16:56:44.459Z,9.96
2019-02-25T16:59:20.374Z,10.00
2019-02-25T17:01:56.002Z,9.87
2019-02-25T17:04:31.711Z,9.82
2019-02-25T17:07:04.746Z,9.72
2019-02-25T17:09:38.697Z,9.65
2019-02-25T17:12:12.670Z,9.51
2019-02-25T17:14:46.963Z,9.45
2019-02-25T17:17:22.803Z,9.39
2019-02-25T17:19:55.213Z,9.26
2019-02-25T17:22:27.292Z,9.12
2019-02-25T17:25:02.861Z,9.07
2019-02-25T17:27:40.158Z,9.07
2019-02-25T17:30:19.616Z,9.00
2019-02-25T17:32:51.707Z,8.94
2019-02-25T17:35:26.646Z,8.81
2019-02-25T17:38:03.018Z,8.82
2019-02-25T17:40:35.034Z,8.87
2019-02-25T17:43:09.106Z,8.90
2019-02-25T17:45:43.846Z,8.86
2019-02-25T17:48:18.567Z,8.83
2019-02-25T17:50:50.612Z,8.84
2019-02-25T17:53:24.107Z,8.80
2019-02-25T17:55:57.689Z,8.78
2019-02-25T17:58:30.543Z,8.82
2019-02-25T18:01:03.283Z,8.85
2019-02-25T18:03:39.548Z,8.91
2019-02-25T18:06:12.284Z,8.91
2019-02-25T18:08:44.404Z,8.92
2019-02-25T18:11:18.382Z,8.87
2019-02-25T18:13:51.325Z,8.87
2019-02-25T18:16:25.928Z,8.87
2019-02-25T18:18:58.142Z,8.90
2019-02-25T18:21:34.021Z,8.87
2019-02-25T18:24:06.376Z,8.93
2019-02-25T18:26:38.422Z,8.88
2019-02-25T18:29:15.571Z,8.88
2019-02-25T18:31:45.318Z,8.77
2019-02-25T18:34:17.596Z,8.66
2019-02-25T18:36:51.595Z,8.58
2019-02-25T18:39:25.284Z,8.56
2019-02-25T18:41:58.065Z,8.54
2019-02-25T18:44:30.487Z,8.53
2019-02-25T18:47:02.662Z,8.40
2019-02-25T18:49:37.103Z,8.21
2019-02-25T18:52:09.656Z,8.10
2019-02-25T18:54:45.324Z,8.04
2019-02-25T18:57:18.922Z,8.02
2019-02-25T18:59:51.758Z,7.98
2019-02-25T19:02:24.251Z,7.92
2019-02-25T19:04:58.229Z,7.86
2019-02-25T19:07:31.454Z,7.83
2019-02-25T19:10:03.980Z,7.78
2019-02-25T19:12:36.006Z,7.66
2019-02-25T19:15:08.590Z,7.56
2019-02-25T19:17:41.293Z,7.48
2019-02-25T19:20:13.529Z,7.47
2019-02-25T19:22:46.443Z,7.40
2019-02-25T19:25:20.877Z,7.23
2019-02-25T19:27:54.452Z,7.05
2019-02-25T19:30:29.388Z,6.96
2019-02-25T19:33:09.284Z,6.86
2019-02-25T19:35:38.007Z,6.79
2019-02-25T19:38:13.409Z,6.72
2019-02-25T19:40:51.252Z,6.61
2019-02-25T19:43:21.933Z,6.48
2019-02-25T19:45:53.889Z,5.50
2019-02-25T19:48:28.862Z,6.43
2019-02-25T19:51:01.467Z,6.45
2019-02-25T19:53:36.038Z,6.53
2019-02-25T19:56:08.116Z,6.54
2019-02-25T19:58:41.120Z,6.50
2019-02-25T20:01:14.791Z,6.56
2019-02-25T20:03:50.304Z,6.54
2019-02-25T20:06:25.682Z,6.51
2019-02-25T20:08:58.697Z,6.61
2019-02-25T20:11:34.779Z,6.57
2019-02-25T20:14:07.020Z,6.52
2019-02-25T20:16:42.139Z,6.50
2019-02-25T20:19:13.395Z,6.46
2019-02-25T20:21:46.529Z,6.41
2019-02-25T20:24:21.748Z,6.35
2019-02-25T20:26:57.726Z,6.48
2019-02-25T20:29:28.005Z,6.47
2019-02-25T20:32:00.213Z,6.51
2019-02-25T20:34:34.771Z,6.55
2019-02-25T20:37:07.529Z,6.61
2019-02-25T20:39:41.116Z,6.56
2019-02-25T20:42:17.314Z,6.60
2019-02-25T20:44:49.156Z,6.61
2019-02-25T20:47:21.544Z,6.50
2019-02-25T20:49:55.676Z,6.34
2019-02-25T20:52:28.587Z,6.26
2019-02-25T20:55:03.195Z,6.13
2019-02-25T20:57:38.613Z,6.04
2019-02-25T21:00:20.057Z,6.06
2019-02-25T21:02:55.663Z,6.06
2019-02-25T21:05:27.675Z,6.04
2019-02-25T21:08:03.251Z,6.15
2019-02-25T21:10:41.794Z,6.36
2019-02-25T21:14:35.695Z,6.50
2019-02-25T21:17:09.599Z,6.55
2019-02-25T21:19:42.466Z,6.60
2019-02-25T21:22:15.469Z,6.61
2019-02-25T21:24:51.820Z,6.55
2019-02-25T21:27:26.057Z,6.42
2019-02-25T21:29:56.906Z,6.33
2019-02-25T21:32:28.842Z,6.19
2019-02-25T21:35:02.579Z,6.27
2019-02-25T21:37:34.634Z,6.25
2019-02-25T21:40:09.019Z,6.33
2019-02-25T21:42:43.674Z,6.27
2019-02-25T21:45:20.006Z,6.27
2019-02-25T21:47:52.324Z,6.25
2019-02-25T21:50:26.314Z,6.21
2019-02-25T21:52:57.474Z,6.21
2019-02-25T21:55:30.973Z,6.21
2019-02-25T21:58:04.858Z,6.37
2019-02-25T22:00:40.224Z,6.47
2019-02-25T22:03:12.304Z,6.38
2019-02-25T22:05:43.832Z,6.28
2019-02-25T22:08:15.822Z,6.16
2019-02-25T22:10:47.754Z,6.06
2019-02-25T22:13:21.087Z,5.93
2019-02-25T22:15:53.219Z,5.89
2019-02-25T22:18:26.159Z,5.83
2019-02-25T22:20:58.704Z,5.75
2019-02-25T22:23:32.753Z,5.68
2019-02-25T22:26:04.229Z,5.63
2019-02-25T22:28:38.810Z,5.49
2019-02-25T22:31:10.901Z,5.46
2019-02-25T22:33:43.322Z,5.45
2019-02-25T22:36:15.127Z,5.36
2019-02-25T22:38:48.112Z,5.35
2019-02-25T22:41:20.569Z,5.40
2019-02-25T22:43:53.595Z,5.48
2019-02-25T22:46:28.177Z,5.49
2019-02-25T22:49:00.859Z,5.42
2019-02-25T22:51:33.212Z,5.30
2019-02-25T22:54:08.620Z,5.18
2019-02-25T22:56:39.667Z,5.09
2019-02-25T22:59:11.643Z,5.00
2019-02-25T23:01:43.739Z,4.93
2019-02-25T23:04:17.424Z,4.91
2019-02-25T23:06:51.268Z,4.96
2019-02-25T23:09:24.079Z,4.92
2019-02-25T23:11:56.808Z,4.96
2019-02-25T23:14:28.598Z,4.96
2019-02-25T23:17:04.597Z,3.96
2019-02-25T23:19:34.889Z,4.86
2019-02-25T23:22:07.500Z,4.79
2019-02-25T23:24:41.477Z,4.80
2019-02-25T23:27:13.041Z,4.77
2019-02-25T23:29:47.740Z,4.76
2019-02-25T23:32:18.513Z,4.82
2019-02-25T23:34:52.616Z,4.91
2019-02-25T23:37:25.695Z,5.00
2019-02-25T23:40:00.040Z,5.03
2019-02-25T23:42:33.104Z,5.11
2019-02-25T23:45:05.021Z,5.18
2019-02-25T23:47:37.773Z,5.24
2019-02-25T23:50:11.548Z,5.25
2019-02-25T23:52:44.093Z,5.33
2019-02-25T23:55:18.647Z,5.34
2019-02-25T23:57:49.766Z,5.41
